Time;durP1;ratioP1;P1;durP2;ratioP2;P2;SDS_P1;SDS_P2;PMS_P1;PMS_P2;Temp;Humidity;BMP_temperature;BMP_pressure;BME280_temperature;BME280_humidity;BME280_pressure;Samples;Min_cycle;Max_cycle;Signal;HPM_P1;HPM_P2
2022/06/07 04:22:33;;;;;;;3.72;2.50;;;;;;;14.52;100.00;100194.72;5077419;28;20164;-78
2022/06/07 04:25:05;;;;;;;6.03;3.40;;;;;;;14.53;100.00;100192.84;5065952;28;20075;-79
2022/06/07 04:27:36;;;;;;;3.50;1.90;;;;;;;14.50;100.00;100191.41;5047308;28;20037;-79
2022/06/07 04:30:02;;;;;;;3.97;2.40;;;;;;;14.52;100.00;100201.91;5047092;28;20063;-79
2022/06/07 04:32:29;;;;;;;5.03;2.72;;;;;;;14.51;100.00;100201.09;5046485;28;20043;-79
2022/06/07 04:34:55;;;;;;;4.82;2.90;;;;;;;14.52;100.00;100200.06;5037260;28;20532;-79
2022/06/07 04:37:23;;;;;;;3.60;2.72;;;;;;;14.49;100.00;100197.81;5034525;28;20045;-79
2022/06/07 04:39:51;;;;;;;5.32;3.03;;;;;;;14.55;100.00;100201.53;5034016;28;20041;-79
2022/06/07 04:42:17;;;;;;;3.42;2.30;;;;;;;14.52;100.00;100209.97;5034279;28;20103;-79
2022/06/07 04:44:58;;;;;;;4.25;2.50;;;;;;;14.54;100.00;100207.91;5035079;28;20066;-79
2022/06/07 04:47:42;;;;;;;3.63;2.35;;;;;;;14.47;100.00;100202.50;5052609;28;20065;-79
2022/06/07 04:50:17;;;;;;;4.03;2.30;;;;;;;14.40;100.00;100201.63;5052909;28;20088;-79
2022/06/07 04:52:44;;;;;;;6.07;2.30;;;;;;;14.48;100.00;100214.91;5052826;28;20544;-79
2022/06/07 04:55:11;;;;;;;4.37;2.70;;;;;;;14.48;100.00;100217.59;5035375;28;20035;-79
2022/06/07 04:57:37;;;;;;;4.75;2.42;;;;;;;14.48;100.00;100224.81;5033306;28;20291;-78
2022/06/07 05:00:08;;;;;;;2.70;2.03;;;;;;;14.53;100.00;100214.28;5034224;28;20045;-79
2022/06/07 05:02:36;;;;;;;2.72;2.03;;;;;;;14.56;100.00;100221.94;5036300;28;20175;-79
2022/06/07 05:05:04;;;;;;;2.57;1.70;;;;;;;14.65;100.00;100231.47;5035014;28;20029;-78
2022/06/07 05:07:30;;;;;;;3.78;2.10;;;;;;;14.71;100.00;100237.88;5035599;28;20044;-79
2022/06/07 05:10:09;;;;;;;3.08;2.30;;;;;;;14.72;100.00;100234.16;5034504;28;20427;-79
2022/06/07 05:12:42;;;;;;;3.17;2.10;;;;;;;14.82;100.00;100238.13;5035224;28;20364;-79
2022/06/07 05:15:12;;;;;;;2.40;1.77;;;;;;;14.96;100.00;100235.50;5036736;28;20064;-79
2022/06/07 05:17:48;;;;;;;3.63;2.03;;;;;;;15.00;100.00;100224.16;5035215;28;20139;-79
2022/06/07 05:20:14;;;;;;;2.55;2.17;;;;;;;15.12;100.00;100233.25;5034115;28;20043;-78
2022/06/07 05:22:42;;;;;;;3.03;2.00;;;;;;;15.16;100.00;100239.06;5034878;28;20040;-79
2022/06/07 05:25:12;;;;;;;2.85;1.98;;;;;;;15.25;100.00;100245.88;5052652;28;20041;-79
2022/06/07 05:27:46;;;;;;;4.90;2.05;;;;;;;15.28;99.66;100236.59;5037068;28;20037;-79
2022/06/07 05:30:16;;;;;;;4.13;1.85;;;;;;;15.32;98.80;100232.47;5035268;28;20033;-79
2022/06/07 05:32:54;;;;;;;3.75;2.00;;;;;;;15.41;98.67;100242.81;5048677;28;20482;-78
2022/06/07 05:35:42;;;;;;;2.83;2.00;;;;;;;15.45;99.43;100246.75;5024454;28;20061;-79
2022/06/07 05:38:15;;;;;;;2.97;1.80;;;;;;;15.54;98.14;100242.00;5041085;28;20044;-79
2022/06/07 05:40:44;;;;;;;2.35;1.63;;;;;;;15.56;98.31;100239.09;5026545;28;20037;-79
2022/06/07 05:43:13;;;;;;;4.80;2.08;;;;;;;15.68;99.18;100237.50;5025279;28;20029;-79
2022/06/07 05:45:51;;;;;;;2.75;1.90;;;;;;;15.76;99.22;100242.66;5024156;28;20041;-78
2022/06/07 05:48:23;;;;;;;4.85;1.90;;;;;;;15.84;99.53;100238.91;5024389;28;20427;-79
2022/06/07 05:50:51;;;;;;;3.85;1.90;;;;;;;15.93;98.65;100246.56;5029371;28;20064;-78
2022/06/07 05:53:19;;;;;;;3.15;1.80;;;;;;;16.00;95.74;100250.06;5023771;28;20040;-78
2022/06/07 05:55:46;;;;;;;3.92;1.90;;;;;;;16.04;95.22;100244.28;5027596;28;20045;-78
2022/06/07 05:58:12;;;;;;;2.72;2.15;;;;;;;16.10;95.49;100251.50;5024332;28;20443;-76
2022/06/07 06:00:39;;;;;;;4.65;2.58;;;;;;;16.18;95.34;100252.13;5016158;28;20095;-75
2022/06/07 06:03:06;;;;;;;3.88;2.25;;;;;;;16.31;94.53;100245.06;5015781;28;20037;-75
2022/06/07 06:05:45;;;;;;;3.08;1.95;;;;;;;16.41;93.39;100238.19;5015834;28;20111;-76
2022/06/07 06:11:07;;;;;;;2.72;2.00;;;;;;;16.57;92.60;100257.63;5015857;28;20498;-75
2022/06/07 06:13:35;;;;;;;2.30;1.88;;;;;;;16.65;92.79;100260.06;5015590;28;20107;-75
2022/06/07 06:16:05;;;;;;;4.35;2.40;;;;;;;16.67;92.44;100257.97;5015770;28;20029;-75
2022/06/07 06:18:34;;;;;;;4.55;2.30;;;;;;;16.69;92.32;100256.75;5033617;28;20664;-75
2022/06/07 06:21:00;;;;;;;2.65;2.30;;;;;;;16.72;93.14;100255.50;5015572;28;20117;-75
2022/06/07 06:23:26;;;;;;;4.05;2.25;;;;;;;16.71;92.29;100251.19;5015408;28;20588;-74
2022/06/07 06:25:52;;;;;;;3.40;2.03;;;;;;;16.77;91.62;100253.00;5015648;28;20532;-74
2022/06/07 06:28:19;;;;;;;3.07;2.00;;;;;;;16.86;92.43;100254.41;5015621;28;20064;-74
2022/06/07 06:30:48;;;;;;;3.88;2.75;;;;;;;16.83;90.91;100246.78;5015535;28;20299;-75
2022/06/07 06:33:27;;;;;;;5.43;2.10;;;;;;;16.93;91.22;100276.72;5017950;28;20498;-78
2022/06/07 06:35:55;;;;;;;2.97;2.20;;;;;;;16.96;92.32;100262.84;5037716;28;20101;-78
2022/06/07 06:38:31;;;;;;;3.38;2.03;;;;;;;16.96;91.66;100256.66;5016131;28;20040;-76
2022/06/07 06:40:59;;;;;;;3.92;2.03;;;;;;;17.11;92.10;100259.88;5015508;28;20034;-77
2022/06/07 06:43:25;;;;;;;4.32;2.47;;;;;;;17.19;92.87;100264.19;5014826;28;20045;-76
2022/06/07 06:46:17;;;;;;;3.13;2.30;;;;;;;17.25;90.28;100249.84;5018690;28;20041;-76
2022/06/07 06:48:44;;;;;;;3.67;2.30;;;;;;;17.36;91.50;100241.91;5015510;28;20038;-75
2022/06/07 06:51:15;;;;;;;3.17;2.28;;;;;;;17.36;90.68;100251.88;5015228;28;20556;-72
2022/06/07 06:53:42;;;;;;;4.00;2.67;;;;;;;17.40;91.14;100258.44;5014974;28;20453;-73
2022/06/07 06:56:20;;;;;;;4.35;2.70;;;;;;;17.35;88.83;100261.81;5015310;28;20091;-73
2022/06/07 06:58:47;;;;;;;3.58;2.20;;;;;;;17.38;89.13;100265.94;5015171;28;20128;-74
2022/06/07 07:01:22;;;;;;;4.32;2.25;;;;;;;17.38;89.58;100260.53;5015112;28;20041;-73
2022/06/07 07:03:50;;;;;;;4.68;2.58;;;;;;;17.40;90.35;100253.06;4998877;28;20033;-74
2022/06/07 07:06:20;;;;;;;3.22;2.58;;;;;;;17.43;89.17;100258.03;5031611;28;20513;-74
2022/06/07 07:08:47;;;;;;;3.70;2.28;;;;;;;17.53;86.84;100261.03;5014896;28;20038;-74
2022/06/07 07:11:21;;;;;;;3.88;2.40;;;;;;;17.67;87.50;100264.50;5014850;28;20519;-73
2022/06/07 07:13:53;;;;;;;6.65;2.67;;;;;;;17.80;84.99;100263.56;5014770;28;20033;-72
2022/06/07 07:16:31;;;;;;;6.38;2.70;;;;;;;18.03;84.16;100263.78;5014721;28;20041;-74
2022/06/07 07:18:59;;;;;;;7.75;2.63;;;;;;;18.22;83.79;100256.56;5014731;28;20098;-74
2022/06/07 07:21:28;;;;;;;4.45;2.00;;;;;;;18.45;83.23;100253.19;5014571;28;20049;-74
2022/06/07 07:23:55;;;;;;;3.47;2.20;;;;;;;18.64;82.20;100251.31;5014395;28;20040;-74
2022/06/07 07:26:24;;;;;;;2.58;2.08;;;;;;;18.66;80.76;100241.13;5014416;28;20414;-74
2022/06/07 07:28:50;;;;;;;2.78;1.90;;;;;;;18.80;78.55;100244.53;5014386;28;20128;-75
2022/06/07 07:31:20;;;;;;;4.50;2.08;;;;;;;18.93;75.73;100245.19;5014196;28;20494;-74
2022/06/07 07:33:47;;;;;;;8.60;3.15;;;;;;;19.03;75.28;100246.50;5014199;28;20042;-74
2022/06/07 07:36:14;;;;;;;3.58;2.08;;;;;;;19.02;77.28;100242.97;5014313;28;20037;-74
2022/06/07 07:38:41;;;;;;;3.30;1.90;;;;;;;19.10;75.14;100242.63;5014202;28;20051;-75
2022/06/07 07:41:24;;;;;;;4.00;2.20;;;;;;;19.20;76.68;100253.72;5014360;28;20034;-73
2022/06/07 07:43:51;;;;;;;4.40;2.17;;;;;;;19.41;75.90;100251.56;5031734;28;20049;-73
2022/06/07 07:46:21;;;;;;;3.65;2.22;;;;;;;19.49;75.01;100251.22;5014783;28;20095;-74
2022/06/07 07:48:48;;;;;;;3.25;1.85;;;;;;;19.35;73.54;100244.38;5018539;28;20037;-74
2022/06/07 07:51:23;;;;;;;4.35;2.25;;;;;;;19.52;70.92;100248.06;5014436;28;20075;-74
2022/06/07 07:53:51;;;;;;;3.13;2.15;;;;;;;19.51;70.03;100249.13;5014115;28;20498;-74
2022/06/07 07:56:19;;;;;;;5.30;2.20;;;;;;;19.48;71.94;100245.00;5013728;28;20029;-73
2022/06/07 07:58:46;;;;;;;6.35;2.53;;;;;;;19.41;72.41;100251.56;5014176;28;20029;-74
2022/06/07 08:01:16;;;;;;;5.57;2.13;;;;;;;19.45;73.00;100247.34;5014167;28;20038;-74
2022/06/07 08:03:43;;;;;;;3.63;2.20;;;;;;;19.46;73.69;100246.28;5013808;28;20042;-74
2022/06/07 08:06:17;;;;;;;3.95;2.47;;;;;;;19.41;73.74;100243.44;5014000;28;20108;-74
2022/06/07 08:08:44;;;;;;;6.85;2.42;;;;;;;19.41;71.87;100246.16;5013957;28;20118;-73
2022/06/07 08:11:10;;;;;;;3.13;1.98;;;;;;;19.37;72.34;100245.00;5031738;28;20108;-74
2022/06/07 08:13:36;;;;;;;6.07;2.20;;;;;;;19.31;72.84;100227.81;5031471;28;20075;-73
2022/06/07 08:16:04;;;;;;;4.00;2.53;;;;;;;19.57;73.58;100245.50;5031364;28;20498;-75
2022/06/07 08:18:29;;;;;;;3.88;2.42;;;;;;;19.73;73.44;100231.31;5013647;28;20044;-74
2022/06/07 08:21:01;;;;;;;3.63;2.47;;;;;;;19.76;71.60;100241.69;5031540;28;20479;-74
2022/06/07 08:23:28;;;;;;;3.90;2.60;;;;;;;19.84;71.12;100235.09;5031406;28;20048;-73
2022/06/07 08:25:58;;;;;;;5.60;3.10;;;;;;;19.84;70.81;100216.19;5031673;28;20406;-75
2022/06/07 08:28:24;;;;;;;6.78;2.33;;;;;;;19.95;72.30;100223.47;5031497;28;20064;-74
2022/06/07 08:30:50;;;;;;;5.03;2.78;;;;;;;20.04;69.40;100216.66;5031324;28;20072;-74
2022/06/07 08:38:45;;;;;;;4.38;2.72;;;;;;;19.89;72.90;100212.78;5031468;28;20047;-75
2022/06/07 08:41:45;;;;;;;3.78;3.03;;;;;;;19.83;71.45;100211.84;5031221;28;20031;-75
2022/06/07 08:44:19;;;;;;;3.72;2.60;;;;;;;19.70;74.78;100225.59;4996046;28;20052;-75
2022/06/07 08:46:45;;;;;;;4.75;2.85;;;;;;;19.74;75.14;100214.06;5031338;28;20068;-75
2022/06/07 08:49:12;;;;;;;3.38;2.90;;;;;;;20.08;72.77;100218.88;5031248;28;20048;-74
2022/06/07 08:51:52;;;;;;;;;;;;;;;20.37;70.95;100219.78;5031605;28;20068;-74
2022/06/07 08:54:24;;;;;;;5.05;2.60;;;;;;;20.35;68.78;100211.09;5031193;28;19913;-75
2022/06/07 08:56:51;;;;;;;3.65;2.58;;;;;;;20.33;67.68;100219.44;5031193;28;20037;-74
2022/06/07 08:59:19;;;;;;;5.18;2.40;;;;;;;20.37;66.33;100209.78;5031138;28;20037;-74
2022/06/07 09:02:00;;;;;;;5.00;1.88;;;;;;;20.55;66.29;100214.25;5030898;28;20084;-75
2022/06/07 09:04:36;;;;;;;2.35;2.15;;;;;;;20.79;65.99;100213.09;5031092;28;20061;-74
2022/06/07 09:07:13;;;;;;;3.75;2.30;;;;;;;21.07;63.63;100209.59;5031208;28;20045;-75
2022/06/07 09:12:32;;;;;;;2.67;2.10;;;;;;;21.53;58.34;100199.56;5034380;28;20069;-74
2022/06/07 09:15:12;;;;;;;3.13;1.95;;;;;;;21.94;57.77;100200.19;5034735;28;20034;-74
2022/06/07 09:17:53;;;;;;;4.72;1.83;;;;;;;22.16;57.08;100194.81;5034616;28;20044;-74
2022/06/07 09:20:23;;;;;;;5.05;1.92;;;;;;;22.42;56.26;100193.25;5034470;28;20479;-74
2022/06/07 09:22:54;;;;;;;4.15;2.17;;;;;;;22.75;55.15;100193.09;5016642;28;20117;-74
2022/06/07 09:25:28;;;;;;;3.60;2.35;;;;;;;22.91;57.20;100193.31;5034488;28;20056;-74
2022/06/07 09:27:56;;;;;;;3.40;2.15;;;;;;;22.47;53.29;100183.28;5034543;28;20483;-73
2022/06/07 09:30:39;;;;;;;5.00;2.42;;;;;;;21.78;54.84;100168.47;5016751;28;20036;-74
2022/06/07 09:33:10;;;;;;;3.90;2.47;;;;;;;21.86;56.13;100193.31;5034422;28;20518;-74
2022/06/07 09:35:42;;;;;;;5.45;2.00;;;;;;;21.64;56.96;100181.56;5034419;28;20046;-74
2022/06/07 09:38:14;;;;;;;5.28;2.28;;;;;;;21.65;56.97;100184.03;5034240;28;20041;-72
2022/06/07 09:40:55;;;;;;;4.05;1.88;;;;;;;22.06;54.58;100178.41;5034407;28;20040;-72
2022/06/07 09:43:41;;;;;;;4.43;2.00;;;;;;;21.99;55.87;100180.47;5034054;28;20158;-73
2022/06/07 09:46:09;;;;;;;5.68;1.73;;;;;;;22.18;54.00;100179.13;5034046;28;20037;-73
2022/06/07 09:48:41;;;;;;;3.33;1.60;;;;;;;22.48;53.29;100181.41;5034273;28;20073;-73
2022/06/07 09:51:06;;;;;;;4.30;2.38;;;;;;;22.52;56.34;100181.72;5034056;28;20120;-73
2022/06/07 09:53:38;;;;;;;3.75;2.17;;;;;;;22.42;55.63;100171.56;5033895;28;20041;-73
2022/06/07 09:56:32;;;;;;;2.42;1.77;;;;;;;22.56;52.99;100178.25;5033952;28;20158;-73
2022/06/07 09:59:24;;;;;;;4.18;2.30;;;;;;;22.81;53.53;100164.13;5033918;28;20475;-73
2022/06/07 10:01:59;;;;;;;3.42;1.70;;;;;;;22.15;52.68;100175.00;5033693;28;20478;-72
2022/06/07 10:04:42;;;;;;;5.00;2.00;;;;;;;21.92;54.09;100169.81;5033865;28;20038;-73
2022/06/07 10:07:16;;;;;;;3.25;1.70;;;;;;;22.06;56.67;100159.41;5033840;28;20049;-73
2022/06/07 10:10:10;;;;;;;3.05;1.80;;;;;;;22.19;56.52;100169.91;5033865;28;20133;-72
2022/06/07 10:13:04;;;;;;;3.72;2.03;;;;;;;22.14;56.38;100159.81;5033345;28;20044;-73
2022/06/07 10:15:41;;;;;;;2.63;2.05;;;;;;;22.23;55.38;100153.94;5033685;28;20106;-73
2022/06/07 10:18:33;;;;;;;3.28;2.33;;;;;;;22.00;55.48;100155.00;5015803;28;20509;-73
2022/06/07 10:21:25;;;;;;;4.50;2.25;;;;;;;21.83;56.53;100155.00;5033613;28;20129;-73
2022/06/07 10:24:15;;;;;;;4.28;2.50;;;;;;;22.13;58.97;100149.22;5014469;28;20042;-73
2022/06/07 10:26:49;;;;;;;7.82;2.90;;;;;;;22.31;55.50;100148.09;5033416;28;20650;-72
2022/06/07 10:30:05;;;;;;;3.53;2.58;;;;;;;22.12;56.72;100155.72;5033457;28;20065;-73
2022/06/07 10:32:52;;;;;;;3.80;2.30;;;;;;;21.92;57.98;100143.50;4998398;28;20055;-73
2022/06/07 10:35:21;;;;;;;3.85;2.42;;;;;;;21.62;57.71;100134.91;5064130;23;20050;-75
2022/06/07 10:38:29;;;;;;;4.90;2.42;;;;;;;21.61;57.68;100144.13;5051822;28;20047;-77
2022/06/07 10:41:24;;;;;;;6.88;3.20;;;;;;;21.52;59.05;100140.22;5053054;28;20432;-77
2022/06/07 10:44:07;;;;;;;8.85;2.50;;;;;;;21.59;58.94;100140.84;5048039;28;20114;-75
2022/06/07 10:46:36;;;;;;;4.40;2.50;;;;;;;21.38;57.90;100139.69;5053080;28;20473;-77
2022/06/07 10:49:20;;;;;;;4.88;2.20;;;;;;;21.39;59.34;100146.78;5052873;28;20115;-77
2022/06/07 10:54:49;;;;;;;4.68;2.13;;;;;;;21.42;61.07;100140.03;5053029;28;20089;-77
2022/06/07 10:57:39;;;;;;;3.28;2.40;;;;;;;21.50;58.94;100132.31;5052935;28;20033;-76
2022/06/07 11:00:20;;;;;;;4.28;2.60;;;;;;;21.60;60.12;100132.47;5052671;28;20082;-76
2022/06/07 11:03:00;;;;;;;5.05;2.67;;;;;;;21.82;60.87;100124.38;5052630;28;20040;-77
2022/06/07 11:11:15;;;;;;;5.50;2.60;;;;;;;22.23;53.88;100114.06;5052397;28;20095;-75
2022/06/07 11:14:02;;;;;;;8.23;2.50;;;;;;;22.52;53.47;100120.13;5052262;28;20025;-77
2022/06/07 11:16:46;;;;;;;;;;;;;;;22.57;51.91;100124.78;5053008;28;20040;-76
2022/06/07 11:19:12;;;;;;;2.90;1.75;;;;;;;22.64;53.57;100118.09;5052283;28;19920;-76
2022/06/07 11:21:42;;;;;;;2.85;2.30;;;;;;;22.62;52.53;100116.69;5052202;28;20041;-76
2022/06/07 11:24:14;;;;;;;3.88;2.35;;;;;;;22.62;53.88;100117.50;5052194;28;20490;-78
2022/06/07 11:26:50;;;;;;;4.05;2.60;;;;;;;22.84;55.93;100117.47;5051209;28;20045;-78
2022/06/07 11:29:20;;;;;;;2.95;1.80;;;;;;;22.87;56.89;100110.72;5052689;28;20068;-79
2022/06/07 11:31:46;;;;;;;2.88;2.10;;;;;;;22.71;55.10;100107.84;5051793;28;20033;-78
2022/06/07 11:34:35;;;;;;;3.70;2.05;;;;;;;23.16;54.91;100112.06;5053186;28;20052;-78
2022/06/07 11:37:09;;;;;;;2.63;2.05;;;;;;;23.38;53.80;100100.28;5052746;28;20068;-77
2022/06/07 11:39:38;;;;;;;2.38;2.00;;;;;;;24.20;54.02;100091.50;5052219;28;20462;-78
2022/06/07 11:42:28;;;;;;;2.60;2.30;;;;;;;25.01;52.50;100096.31;5052810;28;20052;-78
2022/06/07 11:45:20;;;;;;;2.85;2.17;;;;;;;25.67;48.90;100088.09;5039212;28;20506;-79
2022/06/07 11:47:48;;;;;;;3.00;2.10;;;;;;;26.09;48.94;100072.44;5047542;28;20040;-79
2022/06/07 11:50:38;;;;;;;3.60;1.90;;;;;;;26.52;45.23;100079.84;5058281;28;20036;-78
2022/06/07 11:53:35;;;;;;;3.75;1.70;;;;;;;26.42;46.03;100070.91;5052950;28;20121;-77
2022/06/07 11:56:11;;;;;;;3.40;1.80;;;;;;;26.31;46.03;100077.50;5041598;28;20506;-77
2022/06/07 11:59:17;;;;;;;4.65;1.92;;;;;;;25.45;45.35;100076.69;5055382;28;20571;-78
2022/06/07 12:01:46;;;;;;;2.10;1.92;;;;;;;24.70;48.87;100081.03;5050362;28;20087;-78
2022/06/07 12:04:32;;;;;;;4.28;2.45;;;;;;;25.41;46.84;100067.41;5055120;28;20175;-77
2022/06/07 12:07:05;;;;;;;3.75;1.70;;;;;;;26.28;46.37;100073.44;5053814;28;20056;-79
2022/06/07 12:09:31;;;;;;;5.78;2.42;;;;;;;26.17;45.34;100061.72;5054297;28;20045;-79
2022/06/07 12:11:56;;;;;;;4.18;2.08;;;;;;;25.98;43.47;100066.19;5059286;28;20045;-79
2022/06/07 12:14:38;;;;;;;2.17;1.90;;;;;;;25.21;45.08;100060.09;5055443;28;20041;-79
2022/06/07 12:17:19;;;;;;;4.38;2.95;;;;;;;25.03;46.35;100058.69;5055755;28;20045;-78
2022/06/07 12:19:46;;;;;;;3.30;2.13;;;;;;;25.00;47.33;100053.81;5053237;28;20032;-78
2022/06/07 12:22:15;;;;;;;3.25;2.05;;;;;;;25.48;50.54;100048.84;5052141;28;20023;-78
2022/06/07 12:24:47;;;;;;;4.75;1.80;;;;;;;26.16;46.51;100057.38;5052252;28;20120;-79
2022/06/07 12:27:31;;;;;;;4.22;2.13;;;;;;;26.56;44.00;100047.34;5053882;28;20050;-78
2022/06/07 12:30:03;;;;;;;4.13;1.60;;;;;;;26.44;41.90;100049.59;5056058;28;20048;-78
2022/06/07 12:32:35;;;;;;;2.63;1.50;;;;;;;26.44;43.00;100046.88;5056023;28;20279;-78
2022/06/07 12:35:19;;;;;;;4.35;1.73;;;;;;;26.12;44.39;100042.66;5052799;28;20091;-77
2022/06/07 12:37:53;;;;;;;4.15;1.70;;;;;;;25.67;46.25;100046.34;5052229;28;20083;-77
2022/06/07 12:40:27;;;;;;;4.03;2.00;;;;;;;25.10;46.46;100042.09;5053553;28;20433;-78
2022/06/07 12:42:53;;;;;;;2.55;1.88;;;;;;;25.07;46.17;100038.03;5055493;28;20035;-78
2022/06/07 12:45:34;;;;;;;3.13;2.50;;;;;;;24.80;48.12;100034.75;5055678;28;20044;-78
2022/06/07 12:48:15;;;;;;;5.18;2.10;;;;;;;24.80;46.74;100023.84;5057224;28;20120;-78
2022/06/07 12:50:42;;;;;;;4.68;2.63;;;;;;;24.97;45.23;100016.19;5054691;28;20037;-79
2022/06/07 12:53:22;;;;;;;5.03;2.13;;;;;;;25.53;49.66;100015.31;5058437;28;20036;-78
2022/06/07 12:56:13;;;;;;;3.45;1.70;;;;;;;26.41;46.70;100020.97;5057153;28;20033;-78
2022/06/07 12:58:47;;;;;;;2.83;1.42;;;;;;;26.35;46.41;100010.31;5039396;28;20048;-78
2022/06/07 13:01:40;;;;;;;2.88;1.60;;;;;;;26.65;45.47;100007.38;5055713;28;20037;-79
2022/06/07 13:04:36;;;;;;;4.50;1.63;;;;;;;27.02;44.98;100006.78;5053775;28;20044;-78
2022/06/07 13:07:20;;;;;;;3.35;2.40;;;;;;;27.46;45.43;100010.50;5056564;28;20029;-78
2022/06/07 13:09:53;;;;;;;2.38;1.90;;;;;;;27.27;43.76;99999.47;5055908;28;20087;-77
2022/06/07 13:12:43;;;;;;;3.67;1.88;;;;;;;26.78;43.70;100006.72;5054618;28;20036;-77
2022/06/07 13:15:17;;;;;;;1.92;1.50;;;;;;;26.34;44.66;100011.41;5054820;28;20033;-77
2022/06/07 13:17:52;;;;;;;3.90;1.70;;;;;;;26.01;41.81;100008.31;5054613;28;20086;-77
2022/06/07 13:20:29;;;;;;;6.20;1.80;;;;;;;25.59;44.78;99998.66;5054968;28;20045;-77
2022/06/07 13:22:55;;;;;;;;;;;;;;;25.41;45.45;100002.00;5054186;28;20060;-76
2022/06/07 13:25:25;;;;;;;3.75;2.25;;;;;;;25.19;45.66;99998.78;5054487;28;20404;-76
2022/06/07 13:28:01;;;;;;;3.28;1.50;;;;;;;25.12;44.99;99994.44;5053309;28;20110;-75
2022/06/07 13:30:28;;;;;;;2.20;1.40;;;;;;;25.08;45.40;99995.25;5054303;28;20044;-77
2022/06/07 13:33:23;;;;;;;2.95;1.65;;;;;;;25.14;46.30;99994.16;5054063;28;20036;-76
2022/06/07 13:35:57;;;;;;;2.40;1.50;;;;;;;24.95;46.28;99996.59;5040974;28;20581;-76
2022/06/07 13:38:29;;;;;;;1.50;1.40;;;;;;;24.71;47.15;100001.78;5054425;28;20043;-76
2022/06/07 13:41:10;;;;;;;3.00;1.55;;;;;;;24.68;47.93;100002.34;5054976;28;20115;-75
2022/06/07 13:43:48;;;;;;;2.22;1.50;;;;;;;24.47;47.77;99996.06;5054340;28;20045;-76
2022/06/07 13:46:35;;;;;;;1.80;1.52;;;;;;;24.41;49.18;99985.44;5054496;28;20064;-75
2022/06/07 13:55:13;;;;;;;2.60;1.42;;;;;;;24.90;49.21;99980.25;5053476;28;20072;-76
2022/06/07 13:57:38;;;;;;;2.30;1.40;;;;;;;25.00;48.25;99982.97;5054966;28;20036;-77
2022/06/07 14:00:07;;;;;;;2.60;1.40;;;;;;;25.17;48.20;99971.81;5055547;28;20119;-76
2022/06/07 14:02:39;;;;;;;1.98;1.30;;;;;;;24.95;47.67;99980.25;5054163;28;20037;-76
2022/06/07 14:05:14;;;;;;;2.30;1.70;;;;;;;24.50;49.27;99981.09;5019297;28;20098;-77
2022/06/07 14:07:39;;;;;;;1.42;1.20;;;;;;;24.06;49.36;99979.66;5053582;28;20032;-75
2022/06/07 14:10:06;;;;;;;4.45;1.60;;;;;;;23.94;48.30;99970.09;5055872;28;20098;-76
2022/06/07 14:12:31;;;;;;;2.30;1.50;;;;;;;23.93;50.58;99966.56;5053904;28;20098;-76
2022/06/07 14:14:57;;;;;;;3.22;1.25;;;;;;;23.81;49.32;99963.25;5052343;28;20029;-75
2022/06/07 14:17:23;;;;;;;2.30;1.50;;;;;;;23.68;49.07;99969.19;5053686;28;20037;-77
2022/06/07 14:19:53;;;;;;;2.33;1.30;;;;;;;23.48;50.57;99967.19;5053337;28;20053;-76
2022/06/07 14:22:24;;;;;;;1.60;1.30;;;;;;;23.57;49.61;99957.41;5053858;28;20029;-75
2022/06/07 14:24:50;;;;;;;2.85;1.52;;;;;;;23.64;49.13;99954.50;5053348;28;20367;-75
2022/06/07 14:27:19;;;;;;;4.57;1.58;;;;;;;23.79;50.36;99952.63;5053480;28;20033;-76
2022/06/07 14:29:45;;;;;;;2.45;1.80;;;;;;;24.08;50.77;99958.41;5054561;28;20106;-77
2022/06/07 14:32:26;;;;;;;1.63;1.20;;;;;;;24.14;51.39;99953.00;5053736;28;20529;-75
2022/06/07 14:34:53;;;;;;;2.47;1.38;;;;;;;24.03;48.54;99958.41;5053156;28;20037;-74
2022/06/07 14:37:20;;;;;;;3.50;1.80;;;;;;;24.03;49.30;99963.84;5053218;28;20056;-75
2022/06/07 14:39:47;;;;;;;4.45;2.10;;;;;;;23.94;49.21;99954.59;5053169;28;20782;-75
2022/06/07 14:42:13;;;;;;;2.38;1.45;;;;;;;23.93;49.87;99961.13;5052863;28;20061;-75
2022/06/07 14:44:41;;;;;;;3.70;1.67;;;;;;;24.03;49.81;99955.69;5053481;28;20075;-76
2022/06/07 14:47:09;;;;;;;;;;;;;;;24.05;50.57;99948.06;5054078;28;20275;-76
2022/06/07 14:49:37;;;;;;;3.17;1.23;;;;;;;24.00;49.83;99947.25;5053296;28;19916;-77
2022/06/07 14:52:06;;;;;;;3.30;1.55;;;;;;;24.20;49.46;99949.19;5052910;28;20468;-76
2022/06/07 14:54:34;;;;;;;3.92;1.58;;;;;;;24.32;49.68;99955.16;5052834;28;20486;-76
2022/06/07 14:57:00;;;;;;;2.75;1.60;;;;;;;24.31;50.32;99959.81;5052924;28;20041;-75
2022/06/07 14:59:27;;;;;;;3.38;1.10;;;;;;;24.39;48.57;99952.22;5053372;28;20045;-75
2022/06/07 15:02:02;;;;;;;3.50;2.20;;;;;;;24.54;49.31;99954.97;5051245;28;20029;-76
2022/06/07 15:04:30;;;;;;;3.53;2.00;;;;;;;24.36;47.89;99953.59;5052516;28;20548;-76
2022/06/07 15:06:55;;;;;;;5.03;2.38;;;;;;;24.15;49.20;99944.56;5051977;28;20389;-76
2022/06/07 15:09:27;;;;;;;3.53;1.85;;;;;;;23.85;50.08;99961.63;5052466;28;20032;-75
2022/06/07 15:11:55;;;;;;;3.45;2.20;;;;;;;23.53;50.78;99967.19;5052212;28;20039;-76
2022/06/07 15:14:20;;;;;;;4.32;2.35;;;;;;;23.18;51.74;99956.97;5051088;28;20086;-75
2022/06/07 15:16:50;;;;;;;2.67;2.20;;;;;;;22.98;52.59;99972.03;5052336;28;20052;-76
2022/06/07 15:19:21;;;;;;;3.40;2.40;;;;;;;22.87;53.75;99967.63;5052376;28;20043;-75
2022/06/07 15:21:49;;;;;;;2.22;2.00;;;;;;;22.48;53.72;99978.69;5051877;28;20071;-75
2022/06/07 15:24:16;;;;;;;1.92;1.67;;;;;;;22.39;54.80;99995.69;5052231;28;20405;-75
2022/06/07 15:26:44;;;;;;;4.32;1.80;;;;;;;22.11;56.31;100019.28;5052288;28;20040;-74
2022/06/07 15:29:10;;;;;;;8.43;2.33;;;;;;;21.70;64.48;100045.03;5052523;28;20150;-78
2022/06/07 15:31:35;;;;;;;4.03;1.65;;;;;;;20.99;69.48;100039.38;5053435;28;20041;-79
2022/06/07 15:34:06;;;;;;;5.43;1.92;;;;;;;20.62;72.46;100057.19;5055865;28;20033;-82
2022/06/07 15:36:32;;;;;;;6.55;2.42;;;;;;;20.22;75.61;100061.56;5055895;28;20344;-80
2022/06/07 15:38:57;;;;;;;4.28;1.20;;;;;;;19.50;79.74;100074.59;5055626;28;20048;-80
2022/06/07 15:44:09;;;;;;;3.00;1.42;;;;;;;19.14;82.60;100071.06;5055791;28;20052;-82
2022/06/07 15:46:37;;;;;;;4.38;2.10;;;;;;;18.84;83.86;100070.31;5055180;28;20063;-82
2022/06/07 15:49:05;;;;;;;6.03;1.40;;;;;;;18.79;85.37;100072.91;5055854;28;20405;-83
2022/06/07 15:51:31;;;;;;;4.47;1.75;;;;;;;18.48;87.27;100073.94;5053906;28;20094;-82
2022/06/07 15:53:57;;;;;;;5.60;2.90;;;;;;;18.35;90.65;100074.94;5055390;28;20044;-83
2022/06/07 15:56:22;;;;;;;5.60;1.70;;;;;;;18.30;91.29;100078.31;5057855;28;20037;-80
2022/06/07 15:59:03;;;;;;;7.05;1.48;;;;;;;18.16;93.05;100076.84;5056161;28;20037;-82
2022/06/07 16:01:29;;;;;;;3.67;1.60;;;;;;;17.90;94.35;100065.34;5056040;28;20037;-81
2022/06/07 16:03:56;;;;;;;3.42;1.48;;;;;;;18.15;92.82;100067.13;5052871;28;20336;-82
2022/06/07 16:06:24;;;;;;;;;;;;;;;18.21;96.20;100057.31;5055138;28;20090;-82
2022/06/07 16:08:51;;;;;;;5.95;1.85;;;;;;;18.12;96.49;100056.78;5059573;28;19912;-82
2022/06/07 16:11:16;;;;;;;4.50;1.90;;;;;;;18.04;97.02;100046.31;5046919;28;20037;-80
2022/06/07 16:13:44;;;;;;;3.33;2.10;;;;;;;18.15;95.25;100049.06;5063431;28;20068;-80
2022/06/07 16:16:09;;;;;;;;;;;;;;;18.06;98.12;100044.19;5063672;28;20032;-82
2022/06/07 16:18:35;;;;;;;2.50;1.83;;;;;;;18.07;98.49;100045.88;5080613;28;19919;-82
2022/06/07 16:21:01;;;;;;;4.00;2.08;;;;;;;18.06;97.36;100047.75;5058012;28;20068;-83
2022/06/07 16:23:27;;;;;;;3.13;1.80;;;;;;;18.23;98.27;100044.41;5054953;28;20052;-81
2022/06/07 16:25:53;;;;;;;4.97;1.77;;;;;;;18.11;98.85;100034.38;5061722;28;20063;-81
2022/06/07 16:33:51;;;;;;;4.53;1.65;;;;;;;18.49;93.63;100041.34;5076479;22;20044;-75
2022/06/07 16:36:23;;;;;;;3.63;1.42;;;;;;;18.48;94.56;100038.88;5033632;28;20437;-75
2022/06/07 16:38:51;;;;;;;2.05;1.20;;;;;;;18.48;90.48;100038.88;5051285;28;20044;-77
2022/06/07 16:41:17;;;;;;;2.15;1.05;;;;;;;18.46;90.92;100039.13;5051208;28;20033;-76
2022/06/07 16:44:02;;;;;;;5.68;3.35;;;;;;;18.57;93.09;100034.78;5050919;28;20033;-76
2022/06/07 16:46:35;;;;;;;2.50;1.30;;;;;;;18.75;93.31;100029.34;5051227;28;20037;-76
2022/06/07 16:49:05;;;;;;;2.50;1.25;;;;;;;18.96;94.33;100031.47;5051015;28;20033;-76